createdAt,value
2017-05-19T00:01:52.084Z,10.70
2017-05-19T00:04:20.592Z,10.95
2017-05-19T00:06:49.104Z,10.52
2017-05-19T00:09:17.722Z,10.95
2017-05-19T00:11:46.235Z,11.80
2017-05-19T00:14:14.745Z,11.10
2017-05-19T00:16:43.293Z,11.53
2017-05-19T00:19:11.798Z,11.22
2017-05-19T00:21:40.311Z,10.93
2017-05-19T00:24:08.864Z,10.63
2017-05-19T00:26:37.376Z,11.22
2017-05-19T00:29:05.892Z,11.37
2017-05-19T00:31:34.436Z,12.48
2017-05-19T00:34:03.015Z,11.97
2017-05-19T00:36:31.541Z,11.40
2017-05-19T00:39:00.104Z,13.20
2017-05-19T00:41:28.617Z,11.18
2017-05-19T00:43:57.234Z,10.23
2017-05-19T00:46:25.799Z,9.95
2017-05-19T00:48:54.318Z,10.82
2017-05-19T00:51:22.823Z,11.03
2017-05-19T00:53:51.372Z,10.43
2017-05-19T00:56:19.931Z,10.23
2017-05-19T00:58:48.461Z,11.33
2017-05-19T01:01:17.040Z,10.43
2017-05-19T01:03:45.550Z,12.75
2017-05-19T01:06:14.052Z,11.50
2017-05-19T01:08:42.605Z,11.68
2017-05-19T01:11:11.109Z,11.60
2017-05-19T01:13:39.625Z,11.35
2017-05-19T01:16:08.188Z,12.33
2017-05-19T01:18:36.700Z,12.00
2017-05-19T01:21:05.326Z,12.28
2017-05-19T01:23:33.882Z,11.37
2017-05-19T01:26:03.438Z,12.55
2017-05-19T01:28:31.946Z,11.57
2017-05-19T01:31:00.494Z,12.53
2017-05-19T01:33:29.054Z,10.83
2017-05-19T01:35:57.605Z,10.17
2017-05-19T01:38:26.407Z,9.95
2017-05-19T01:40:54.927Z,11.47
2017-05-19T01:43:23.428Z,11.87
2017-05-19T01:45:52.004Z,10.77
2017-05-19T01:48:20.527Z,11.70
2017-05-19T01:50:49.062Z,11.07
2017-05-19T01:53:17.669Z,12.27
2017-05-19T01:55:46.166Z,12.60
2017-05-19T01:58:14.679Z,11.67
2017-05-19T02:00:43.221Z,13.87
2017-05-19T02:03:11.733Z,12.50
2017-05-19T02:05:40.241Z,12.82
2017-05-19T02:08:08.793Z,11.88
2017-05-19T02:10:37.299Z,12.68
2017-05-19T02:13:05.825Z,12.12
2017-05-19T02:15:34.372Z,11.45
2017-05-19T02:18:02.882Z,13.55
2017-05-19T02:20:31.458Z,12.52
2017-05-19T02:23:00.014Z,13.25
2017-05-19T02:25:28.524Z,13.83
2017-05-19T02:27:57.034Z,13.35
2017-05-19T02:30:25.575Z,12.25
2017-05-19T02:32:54.081Z,12.18
2017-05-19T02:35:22.593Z,12.58
2017-05-19T02:37:51.145Z,14.82
2017-05-19T02:40:19.675Z,13.32
2017-05-19T02:42:48.182Z,11.52
2017-05-19T02:45:16.741Z,12.12
2017-05-19T02:47:45.249Z,12.40
2017-05-19T02:50:13.760Z,14.05
2017-05-19T02:52:42.309Z,14.32
2017-05-19T02:55:10.816Z,12.87
2017-05-19T02:57:39.325Z,14.47
2017-05-19T03:00:07.877Z,13.07
2017-05-19T03:02:36.377Z,13.57
2017-05-19T03:05:04.893Z,13.98
2017-05-19T03:07:33.445Z,13.15
2017-05-19T03:10:01.962Z,13.45
2017-05-19T03:12:30.473Z,13.92
2017-05-19T03:14:59.026Z,14.32
2017-05-19T03:17:27.529Z,13.32
2017-05-19T03:19:56.037Z,14.13
2017-05-19T03:22:24.589Z,16.45
2017-05-19T03:24:53.100Z,13.75
2017-05-19T03:27:21.608Z,16.72
2017-05-19T03:29:50.155Z,14.20
2017-05-19T03:32:18.717Z,15.30
2017-05-19T03:34:47.232Z,16.12
2017-05-19T03:37:15.784Z,15.37
2017-05-19T03:39:44.297Z,14.05
2017-05-19T03:42:12.801Z,14.52
2017-05-19T03:44:41.350Z,12.87
2017-05-19T03:47:09.861Z,14.50
2017-05-19T03:49:38.376Z,14.90
2017-05-19T03:52:06.955Z,13.98
2017-05-19T03:54:35.462Z,13.00
2017-05-19T03:57:03.972Z,13.83
2017-05-19T03:59:32.545Z,14.37
2017-05-19T04:02:01.048Z,14.45
2017-05-19T04:04:29.548Z,14.10
2017-05-19T04:06:58.094Z,14.68
2017-05-19T04:09:26.597Z,14.97
2017-05-19T04:11:55.123Z,16.50
2017-05-19T04:14:23.700Z,14.90
2017-05-19T04:16:52.225Z,15.67
2017-05-19T04:19:20.734Z,14.52
2017-05-19T04:21:49.283Z,16.23
2017-05-19T04:24:17.788Z,15.43
2017-05-19T04:26:46.307Z,13.88
2017-05-19T04:29:14.864Z,15.02
2017-05-19T04:31:43.374Z,14.52
2017-05-19T04:34:11.889Z,15.37
2017-05-19T04:36:40.436Z,14.13
2017-05-19T04:39:08.940Z,14.40
2017-05-19T04:41:37.448Z,15.73
2017-05-19T04:44:06.008Z,15.75
2017-05-19T04:46:34.516Z,14.68
2017-05-19T04:49:03.066Z,16.07
2017-05-19T04:51:31.645Z,17.60
2017-05-19T04:54:00.171Z,14.92
2017-05-19T04:56:28.681Z,16.83
2017-05-19T04:58:57.233Z,15.27
2017-05-19T05:01:25.739Z,15.33
2017-05-19T05:03:54.260Z,15.20
2017-05-19T05:06:22.813Z,14.35
2017-05-19T05:08:51.325Z,15.22
2017-05-19T05:11:19.836Z,14.48
2017-05-19T05:13:48.392Z,12.82
2017-05-19T05:16:16.895Z,12.33
2017-05-19T05:18:45.396Z,13.03
2017-05-19T05:21:13.980Z,12.13
2017-05-19T05:23:42.488Z,11.68
2017-05-19T05:26:11.056Z,11.28
2017-05-19T05:28:39.881Z,10.52
2017-05-19T05:31:08.391Z,11.05
2017-05-19T05:33:36.896Z,11.73
2017-05-19T05:36:05.441Z,10.20
2017-05-19T05:38:33.954Z,10.87
2017-05-19T05:41:02.459Z,11.65
2017-05-19T05:43:31.009Z,10.52
2017-05-19T05:45:59.519Z,11.55
2017-05-19T05:48:28.026Z,10.35
2017-05-19T05:50:56.598Z,8.33
2017-05-19T05:53:25.125Z,12.20
2017-05-19T05:55:53.633Z,9.24
2017-05-19T05:58:22.222Z,9.50
2017-05-19T06:00:50.735Z,9.80
2017-05-19T06:03:19.250Z,11.00
2017-05-19T06:05:47.817Z,9.95
2017-05-19T06:08:16.325Z,8.90
2017-05-19T06:10:44.837Z,9.45
2017-05-19T06:13:13.432Z,9.26
2017-05-19T06:15:41.955Z,8.48
2017-05-19T06:18:10.472Z,10.55
2017-05-19T06:20:39.025Z,8.03
2017-05-19T06:23:07.535Z,9.15
2017-05-19T06:25:36.032Z,8.54
2017-05-19T06:28:04.579Z,7.08
2017-05-19T06:30:33.087Z,9.60
2017-05-19T06:33:03.488Z,8.58
2017-05-19T06:35:32.047Z,8.24
2017-05-19T06:38:00.531Z,7.28
2017-05-19T06:40:29.014Z,8.50
2017-05-19T06:42:57.550Z,6.24
2017-05-19T06:45:26.037Z,7.50
2017-05-19T06:47:54.523Z,7.34
2017-05-19T06:50:23.067Z,6.68
2017-05-19T06:52:51.563Z,6.82
2017-05-19T06:55:20.064Z,5.90
2017-05-19T06:57:48.608Z,7.78
2017-05-19T07:00:17.099Z,6.30
2017-05-19T07:02:45.592Z,6.36
2017-05-19T07:05:14.126Z,8.22
2017-05-19T07:07:42.628Z,6.88
2017-05-19T07:10:11.147Z,6.20
2017-05-19T07:12:39.683Z,7.14
2017-05-19T07:15:08.169Z,6.72
2017-05-19T07:17:36.659Z,7.32
2017-05-19T07:20:05.196Z,6.26
2017-05-19T07:22:33.693Z,6.62
2017-05-19T07:25:02.192Z,5.70
2017-05-19T07:27:30.724Z,6.20
2017-05-19T07:29:59.214Z,5.80
2017-05-19T07:32:27.703Z,6.78
2017-05-19T07:34:56.259Z,5.82
2017-05-19T07:37:24.747Z,5.54
2017-05-19T07:39:53.252Z,6.70
2017-05-19T07:42:21.787Z,5.58
2017-05-19T07:44:50.281Z,4.62
2017-05-19T07:47:18.777Z,4.84
2017-05-19T07:49:47.315Z,5.26
2017-05-19T07:52:15.810Z,4.50
2017-05-19T07:54:44.304Z,5.18
2017-05-19T07:57:12.868Z,5.20
2017-05-19T07:59:41.369Z,5.30
2017-05-19T08:02:09.859Z,5.24
2017-05-19T08:04:38.396Z,5.26
2017-05-19T08:07:06.892Z,4.62
2017-05-19T08:09:35.385Z,4.96
2017-05-19T08:12:03.919Z,3.82
2017-05-19T08:14:32.415Z,4.86
2017-05-19T08:17:00.905Z,4.60
2017-05-19T08:19:29.435Z,5.30
2017-05-19T08:21:57.918Z,4.20
2017-05-19T08:24:26.405Z,4.46
2017-05-19T08:26:54.943Z,5.06
2017-05-19T08:29:23.439Z,3.92
2017-05-19T08:31:51.931Z,4.82
2017-05-19T08:34:20.471Z,5.04
2017-05-19T08:36:48.960Z,4.00
2017-05-19T08:39:17.462Z,4.44
2017-05-19T08:41:45.999Z,5.18
2017-05-19T08:44:14.492Z,5.44
2017-05-19T08:46:42.987Z,3.80
2017-05-19T08:49:11.538Z,4.46
2017-05-19T08:51:40.029Z,4.20
2017-05-19T08:54:08.519Z,4.60
2017-05-19T08:56:37.048Z,4.38
2017-05-19T08:59:05.535Z,3.26
2017-05-19T09:01:34.022Z,4.30
2017-05-19T09:04:02.555Z,3.38
2017-05-19T09:06:31.042Z,4.04
2017-05-19T09:08:59.539Z,3.54
2017-05-19T09:11:28.075Z,3.72
2017-05-19T09:13:56.567Z,3.22
2017-05-19T09:16:25.065Z,4.30
2017-05-19T09:18:53.615Z,3.30
2017-05-19T09:21:22.110Z,4.38
2017-05-19T09:23:50.598Z,3.98
2017-05-19T09:26:19.126Z,4.28
2017-05-19T09:28:47.610Z,3.68
2017-05-19T09:31:16.095Z,4.08
2017-05-19T09:33:44.631Z,3.97
2017-05-19T09:36:13.126Z,3.50
2017-05-19T09:38:41.614Z,3.45
2017-05-19T09:41:10.146Z,3.75
2017-05-19T09:43:38.647Z,4.83
2017-05-19T09:46:07.135Z,3.95
2017-05-19T09:48:35.673Z,3.83
2017-05-19T09:51:04.163Z,4.32
2017-05-19T09:53:32.670Z,4.03
2017-05-19T09:56:01.207Z,4.25
2017-05-19T09:58:29.694Z,4.62
2017-05-19T10:00:58.196Z,4.87
2017-05-19T10:03:26.731Z,4.73
2017-05-19T10:05:55.219Z,3.95
2017-05-19T10:08:23.717Z,4.27
2017-05-19T10:10:52.243Z,4.45
2017-05-19T10:13:20.727Z,4.17
2017-05-19T10:15:49.210Z,4.87
2017-05-19T10:18:17.738Z,4.00
2017-05-19T10:20:46.226Z,4.83
2017-05-19T10:23:14.725Z,4.30
2017-05-19T10:25:43.259Z,3.87
2017-05-19T10:28:11.751Z,4.32
2017-05-19T10:30:40.251Z,5.70
2017-05-19T10:33:08.788Z,4.80
2017-05-19T10:35:37.280Z,3.80
2017-05-19T10:38:05.771Z,4.50
2017-05-19T10:40:34.302Z,5.48
2017-05-19T10:43:02.791Z,3.92
2017-05-19T10:45:31.282Z,4.73
2017-05-19T10:47:59.834Z,4.62
2017-05-19T10:50:28.323Z,4.12
2017-05-19T10:52:56.820Z,4.57
2017-05-19T10:55:25.364Z,5.02
2017-05-19T10:57:53.864Z,5.23
2017-05-19T11:00:22.347Z,3.73
2017-05-19T11:02:50.878Z,4.77
2017-05-19T11:05:19.366Z,5.38
2017-05-19T11:07:47.863Z,4.65
2017-05-19T11:10:16.767Z,4.75
2017-05-19T11:12:45.254Z,4.47
2017-05-19T11:15:13.740Z,4.33
2017-05-19T11:17:42.267Z,4.23
2017-05-19T11:20:10.391Z,4.48
2017-05-19T11:22:38.885Z,3.83
2017-05-19T11:25:07.418Z,4.13
2017-05-19T11:27:35.920Z,4.15
2017-05-19T11:30:04.419Z,4.62
2017-05-19T11:32:32.951Z,4.23
2017-05-19T11:35:01.439Z,4.33
2017-05-19T11:37:29.933Z,4.92
2017-05-19T11:39:58.474Z,4.48
2017-05-19T11:42:26.961Z,6.00
2017-05-19T11:44:55.451Z,3.97
2017-05-19T11:47:23.979Z,4.38
2017-05-19T11:49:52.462Z,4.95
2017-05-19T11:52:20.947Z,4.73
2017-05-19T11:54:49.477Z,4.22
2017-05-19T11:57:17.969Z,5.48
2017-05-19T11:59:46.462Z,4.32
2017-05-19T12:02:14.987Z,5.08
2017-05-19T12:04:43.488Z,5.17
2017-05-19T12:07:11.981Z,4.48
2017-05-19T12:10:02.278Z,4.35
2017-05-19T12:12:30.762Z,5.70
2017-05-19T12:14:59.253Z,6.20
2017-05-19T12:17:27.795Z,4.97
2017-05-19T12:19:56.290Z,3.98
2017-05-19T12:22:24.783Z,4.80
2017-05-19T12:24:53.312Z,4.63
2017-05-19T12:27:21.816Z,4.40
2017-05-19T12:29:50.311Z,4.00
2017-05-19T12:32:18.852Z,5.18
2017-05-19T12:34:47.342Z,4.80
2017-05-19T12:37:15.836Z,3.68
2017-05-19T12:39:44.520Z,4.57
2017-05-19T12:42:13.007Z,4.02
2017-05-19T12:44:41.500Z,3.88
2017-05-19T12:47:10.034Z,3.70
2017-05-19T12:49:38.531Z,4.37
2017-05-19T12:52:07.014Z,5.02
2017-05-19T12:54:35.556Z,4.60
2017-05-19T12:57:04.057Z,3.78
2017-05-19T12:59:32.556Z,4.18
2017-05-19T13:02:01.100Z,5.02
2017-05-19T13:04:29.611Z,3.83
2017-05-19T13:06:58.113Z,4.32
2017-05-19T13:09:26.652Z,4.28
2017-05-19T13:11:55.154Z,4.73
2017-05-19T13:14:23.653Z,4.10
2017-05-19T13:16:52.207Z,5.17
2017-05-19T13:19:20.714Z,4.00
2017-05-19T13:21:49.218Z,4.55
2017-05-19T13:24:17.765Z,7.27
2017-05-19T13:26:46.261Z,4.25
2017-05-19T13:29:14.763Z,5.47
2017-05-19T13:31:43.312Z,4.77
2017-05-19T13:34:11.817Z,4.75
2017-05-19T13:36:40.321Z,4.55
2017-05-19T13:39:08.859Z,4.00
2017-05-19T13:41:37.358Z,4.88
2017-05-19T13:44:05.856Z,4.67
2017-05-19T13:46:34.405Z,4.45
2017-05-19T13:49:02.899Z,4.43
2017-05-19T13:51:31.405Z,5.87
2017-05-19T13:53:59.949Z,5.07
2017-05-19T13:56:28.453Z,4.92
2017-05-19T13:58:56.955Z,5.37
2017-05-19T14:01:25.522Z,4.35
2017-05-19T14:03:54.034Z,4.32
2017-05-19T14:06:22.544Z,5.58
2017-05-19T14:08:51.088Z,3.97
2017-05-19T14:11:19.584Z,4.63
2017-05-19T14:13:48.089Z,4.18
2017-05-19T14:16:16.637Z,4.62
2017-05-19T14:18:45.150Z,5.50
2017-05-19T14:21:13.660Z,4.42
2017-05-19T14:23:42.205Z,4.83
2017-05-19T14:26:10.708Z,4.28
2017-05-19T14:28:39.215Z,4.50
2017-05-19T14:31:07.757Z,4.90
2017-05-19T14:33:36.253Z,3.92
2017-05-19T14:36:04.760Z,4.73
2017-05-19T14:38:33.305Z,5.13
2017-05-19T14:41:01.824Z,4.48
2017-05-19T14:43:30.333Z,4.48
2017-05-19T14:45:58.870Z,4.13
2017-05-19T14:48:27.380Z,4.17
2017-05-19T14:50:55.877Z,4.85
2017-05-19T14:53:24.437Z,4.32
2017-05-19T14:55:52.936Z,4.30
2017-05-19T14:58:21.435Z,4.30
2017-05-19T15:00:49.976Z,4.55
2017-05-19T15:03:18.484Z,4.48
2017-05-19T15:05:47.054Z,5.05
2017-05-19T15:08:15.597Z,4.77
2017-05-19T15:10:44.095Z,4.18
2017-05-19T15:13:12.602Z,4.50
2017-05-19T15:15:41.183Z,5.10
2017-05-19T15:18:09.685Z,4.83
2017-05-19T15:20:38.188Z,6.05
2017-05-19T15:23:06.728Z,5.05
2017-05-19T15:25:35.234Z,5.03
2017-05-19T15:28:03.732Z,4.00
2017-05-19T15:30:32.268Z,4.67
2017-05-19T15:33:00.771Z,4.45
2017-05-19T15:35:29.276Z,4.23
2017-05-19T15:37:57.839Z,4.98
2017-05-19T15:40:26.341Z,4.65
2017-05-19T15:42:54.840Z,4.48
2017-05-19T15:45:23.397Z,3.85
2017-05-19T15:47:51.902Z,4.50
2017-05-19T15:50:20.404Z,4.00
2017-05-19T15:52:49.360Z,3.83
2017-05-19T15:55:17.865Z,4.67
2017-05-19T15:57:46.371Z,4.17
2017-05-19T16:00:14.912Z,5.03
2017-05-19T16:02:43.458Z,5.32
2017-05-19T16:05:11.985Z,4.20
2017-05-19T16:07:40.561Z,4.12
2017-05-19T16:10:09.070Z,4.50
2017-05-19T16:12:37.627Z,4.58
2017-05-19T16:15:06.188Z,4.85
2017-05-19T16:17:34.724Z,3.98
2017-05-19T16:20:04.032Z,4.50
2017-05-19T16:22:32.855Z,4.22
2017-05-19T16:25:01.364Z,3.83
2017-05-19T16:27:29.872Z,4.07
2017-05-19T16:29:58.429Z,4.50
2017-05-19T16:32:26.966Z,4.68
2017-05-19T16:34:55.568Z,4.20
2017-05-19T16:37:24.132Z,4.63
2017-05-19T16:39:52.651Z,4.25
2017-05-19T16:42:21.153Z,4.05
2017-05-19T16:44:49.699Z,4.73
2017-05-19T16:47:18.205Z,3.98
2017-05-19T16:49:46.714Z,3.95
2017-05-19T16:52:15.257Z,4.38
2017-05-19T16:54:43.757Z,4.63
2017-05-19T16:57:12.263Z,4.78
2017-05-19T16:59:40.801Z,4.58
2017-05-19T17:02:09.304Z,5.23
2017-05-19T17:04:37.810Z,5.17
2017-05-19T17:07:06.353Z,4.80
2017-05-19T17:09:34.843Z,5.57
2017-05-19T17:12:03.358Z,5.15
2017-05-19T17:14:31.917Z,4.95
2017-05-19T17:17:00.426Z,4.25
2017-05-19T17:19:28.934Z,4.72
2017-05-19T17:21:57.476Z,5.77
2017-05-19T17:24:25.998Z,4.68
2017-05-19T17:26:54.500Z,5.07
2017-05-19T17:29:23.040Z,4.80
2017-05-19T17:31:51.546Z,4.88
2017-05-19T17:34:20.042Z,4.58
2017-05-19T17:36:48.586Z,4.78
2017-05-19T17:39:17.092Z,4.90
2017-05-19T17:41:45.595Z,5.85
2017-05-19T17:44:14.152Z,4.88
2017-05-19T17:46:42.657Z,5.52
2017-05-19T17:49:11.173Z,6.07
2017-05-19T17:51:39.731Z,5.63
2017-05-19T17:54:08.232Z,5.22
2017-05-19T17:56:36.741Z,5.65
2017-05-19T17:59:05.419Z,5.78
2017-05-19T18:01:33.925Z,5.80
2017-05-19T18:04:02.435Z,5.50
2017-05-19T18:06:30.997Z,6.12
2017-05-19T18:08:59.515Z,5.77
2017-05-19T18:11:28.036Z,5.12
2017-05-19T18:13:56.576Z,6.08
2017-05-19T18:16:25.082Z,5.47
2017-05-19T18:18:53.688Z,6.72
2017-05-19T18:21:22.235Z,6.65
2017-05-19T18:23:50.738Z,5.30
2017-05-19T18:26:19.264Z,5.77
2017-05-19T18:28:47.809Z,6.12
2017-05-19T18:31:16.311Z,5.83
2017-05-19T18:33:44.816Z,6.27
2017-05-19T18:36:13.351Z,5.13
2017-05-19T18:38:41.873Z,5.93
2017-05-19T18:41:10.401Z,5.97
2017-05-19T18:43:38.945Z,5.95
2017-05-19T18:46:07.448Z,6.25
2017-05-19T18:48:35.959Z,6.20
2017-05-19T18:51:04.530Z,6.08
2017-05-19T18:54:00.297Z,6.63
2017-05-19T18:56:28.800Z,6.60
2017-05-19T18:58:57.303Z,6.43
2017-05-19T19:01:25.854Z,6.37
2017-05-19T19:03:54.361Z,5.42
2017-05-19T19:06:22.868Z,5.37
2017-05-19T19:08:51.409Z,5.93
2017-05-19T19:11:19.912Z,6.20
2017-05-19T19:13:48.412Z,5.72
2017-05-19T19:16:16.969Z,5.78
2017-05-19T19:18:45.477Z,5.63
2017-05-19T19:21:13.993Z,6.20
2017-05-19T19:23:42.568Z,5.63
2017-05-19T19:26:11.077Z,7.00
2017-05-19T19:28:39.580Z,5.88
2017-05-19T19:31:08.131Z,6.22
2017-05-19T19:33:36.639Z,5.72
2017-05-19T19:36:05.152Z,5.92
2017-05-19T19:38:33.693Z,5.37
2017-05-19T19:41:02.198Z,6.02
2017-05-19T19:43:30.715Z,6.30
2017-05-19T19:45:59.265Z,5.92
2017-05-19T19:48:27.765Z,7.18
2017-05-19T19:50:56.289Z,7.73
2017-05-19T19:53:24.855Z,7.10
2017-05-19T19:55:53.358Z,6.23
2017-05-19T19:58:21.873Z,6.72
2017-05-19T20:00:50.572Z,6.47
2017-05-19T20:03:19.097Z,6.63
2017-05-19T20:05:47.611Z,6.92
2017-05-19T20:08:16.186Z,6.23
2017-05-19T20:10:44.688Z,7.50
2017-05-19T20:13:13.203Z,6.98
2017-05-19T20:15:41.883Z,5.72
2017-05-19T20:18:11.309Z,5.60
2017-05-19T20:20:40.081Z,6.25
2017-05-19T20:23:08.663Z,6.23
2017-05-19T20:25:37.237Z,6.42
2017-05-19T20:28:06.462Z,6.30
2017-05-19T20:30:35.119Z,6.65
2017-05-19T20:33:03.709Z,7.02
2017-05-19T20:35:32.299Z,5.65
2017-05-19T20:38:01.036Z,6.45
2017-05-19T20:40:29.541Z,7.63
2017-05-19T20:42:58.290Z,6.38
2017-05-19T20:45:26.862Z,6.17
2017-05-19T20:47:55.386Z,6.98
2017-05-19T20:50:23.916Z,7.07
2017-05-19T20:52:52.507Z,7.82
2017-05-19T20:55:21.086Z,8.68
2017-05-19T20:57:49.611Z,10.82
2017-05-19T21:00:18.188Z,9.30
2017-05-19T21:02:46.704Z,8.00
2017-05-19T21:05:15.248Z,7.43
2017-05-19T21:07:43.800Z,9.12
2017-05-19T21:10:12.299Z,8.20
2017-05-19T21:12:40.824Z,6.72
2017-05-19T21:15:09.381Z,7.82
2017-05-19T21:17:37.885Z,7.77
2017-05-19T21:20:06.392Z,8.40
2017-05-19T21:22:35.549Z,9.32
2017-05-19T21:25:04.198Z,9.52
2017-05-19T21:27:32.759Z,9.28
2017-05-19T21:30:01.324Z,8.47
2017-05-19T21:32:29.857Z,8.28
2017-05-19T21:34:58.379Z,9.75
2017-05-19T21:37:26.924Z,7.88
2017-05-19T21:39:55.428Z,9.57
2017-05-19T21:42:23.943Z,8.62
2017-05-19T21:44:52.505Z,8.43
2017-05-19T21:47:21.015Z,9.48
2017-05-19T21:49:49.525Z,7.50
2017-05-19T21:52:18.100Z,7.98
2017-05-19T21:54:46.604Z,8.22
2017-05-19T21:57:15.105Z,8.20
2017-05-19T21:59:43.652Z,7.23
2017-05-19T22:02:12.159Z,8.40
2017-05-19T22:04:40.660Z,8.10
2017-05-19T22:07:09.210Z,7.20
2017-05-19T22:09:37.712Z,8.35
2017-05-19T22:12:06.214Z,7.97
2017-05-19T22:14:34.766Z,7.88
2017-05-19T22:17:03.269Z,7.58
2017-05-19T22:19:31.776Z,8.17
2017-05-19T22:22:00.320Z,8.68
2017-05-19T22:24:28.825Z,9.13
2017-05-19T22:26:57.332Z,10.25
2017-05-19T22:29:25.880Z,8.60
2017-05-19T22:31:54.387Z,8.75
2017-05-19T22:34:22.898Z,9.30
2017-05-19T22:36:51.448Z,9.80
2017-05-19T22:39:19.956Z,9.53
2017-05-19T22:41:48.480Z,8.98
2017-05-19T22:44:17.023Z,7.67
2017-05-19T22:46:45.525Z,8.78
2017-05-19T22:49:14.213Z,8.55
2017-05-19T22:51:42.762Z,7.50
2017-05-19T22:54:11.264Z,8.43
2017-05-19T22:56:39.779Z,9.18
2017-05-19T22:59:08.326Z,8.55
2017-05-19T23:01:36.829Z,9.75
2017-05-19T23:04:05.336Z,7.72
2017-05-19T23:06:33.880Z,8.53
2017-05-19T23:09:02.398Z,10.13
2017-05-19T23:11:30.909Z,10.00
2017-05-19T23:13:59.447Z,9.35
2017-05-19T23:16:27.952Z,10.82
2017-05-19T23:18:56.460Z,9.72
2017-05-19T23:21:25.053Z,10.13
2017-05-19T23:23:53.561Z,11.15
2017-05-19T23:26:22.069Z,10.85
2017-05-19T23:28:50.616Z,10.20
2017-05-19T23:31:19.130Z,10.73
2017-05-19T23:33:47.641Z,11.47
2017-05-19T23:36:16.199Z,12.07
2017-05-19T23:38:44.730Z,10.75
2017-05-19T23:41:13.254Z,10.72
2017-05-19T23:43:41.817Z,11.67
2017-05-19T23:46:10.323Z,10.02
2017-05-19T23:48:38.824Z,9.77
2017-05-19T23:51:07.373Z,9.80
2017-05-19T23:53:35.881Z,10.87
2017-05-19T23:56:04.384Z,10.37
2017-05-19T23:58:32.942Z,10.23
